Time;durP1;ratioP1;P1;durP2;ratioP2;P2;SDS_P1;SDS_P2;PMS_P1;PMS_P2;Temp;Humidity;BMP_temperature;BMP_pressure;BME280_temperature;BME280_humidity;BME280_pressure;Samples;Min_cycle;Max_cycle;Signal;HPM_P1;HPM_P2
2021/05/21 00:00:42;;;;;;;1.73;0.95;;;23.00;35.00;;;;;;5015099;28;20066;-62
2021/05/21 00:03:08;;;;;;;1.08;0.90;;;23.00;35.10;;;;;;5014334;28;20096;-62
2021/05/21 00:05:34;;;;;;;2.25;1.27;;;23.00;35.10;;;;;;5015551;28;20048;-63
2021/05/21 00:08:01;;;;;;;1.15;0.88;;;23.00;35.10;;;;;;5016849;28;20065;-62
2021/05/21 00:10:27;;;;;;;1.63;1.00;;;23.00;35.10;;;;;;5015812;28;20441;-62
2021/05/21 00:12:53;;;;;;;0.95;0.82;;;23.00;35.20;;;;;;5014888;28;20021;-63
2021/05/21 00:15:20;;;;;;;1.98;1.13;;;22.90;35.20;;;;;;5015616;28;20026;-63
2021/05/21 00:17:46;;;;;;;1.70;1.10;;;22.90;35.20;;;;;;5014995;28;20030;-63
2021/05/21 00:20:13;;;;;;;1.10;0.98;;;23.00;35.30;;;;;;5015150;28;20095;-64
2021/05/21 00:22:39;;;;;;;1.27;1.00;;;22.90;35.20;;;;;;5016679;28;20040;-63
2021/05/21 00:25:05;;;;;;;0.85;0.80;;;22.90;35.30;;;;;;5014937;28;20457;-63
2021/05/21 00:27:31;;;;;;;1.23;0.70;;;22.90;35.30;;;;;;5014899;28;20022;-63
2021/05/21 00:29:57;;;;;;;1.10;0.90;;;22.90;35.30;;;;;;5014967;28;20433;-64
2021/05/21 00:32:22;;;;;;;1.00;0.82;;;22.90;35.40;;;;;;5015248;28;20364;-64
2021/05/21 00:34:49;;;;;;;1.10;0.70;;;22.90;35.50;;;;;;5015574;28;20402;-62
2021/05/21 00:37:15;;;;;;;1.05;0.82;;;22.90;35.50;;;;;;5013437;28;20076;-62
2021/05/21 00:39:41;;;;;;;1.20;1.10;;;22.90;35.50;;;;;;4998255;28;20397;-63
2021/05/21 00:42:08;;;;;;;1.35;0.95;;;22.90;35.50;;;;;;5015465;28;20425;-63
2021/05/21 00:44:34;;;;;;;1.55;0.98;;;22.90;35.50;;;;;;5014992;28;20038;-63
2021/05/21 00:47:00;;;;;;;0.88;0.70;;;22.90;35.60;;;;;;5014526;28;20488;-63
2021/05/21 00:49:25;;;;;;;1.25;0.80;;;22.80;35.50;;;;;;5015979;28;20179;-62
2021/05/21 00:51:52;;;;;;;0.82;0.70;;;22.80;35.50;;;;;;4997234;28;20037;-63
2021/05/21 00:54:19;;;;;;;0.85;0.63;;;22.90;35.60;;;;;;5015671;28;20026;-63
2021/05/21 00:56:46;;;;;;;1.42;0.90;;;22.80;35.50;;;;;;5015982;28;20441;-63
2021/05/21 00:59:12;;;;;;;0.98;0.70;;;22.90;35.60;;;;;;5014375;28;20034;-63
2021/05/21 01:01:38;;;;;;;0.65;0.60;;;22.80;35.60;;;;;;5015873;28;20029;-63
2021/05/21 01:04:05;;;;;;;1.13;0.80;;;22.80;35.60;;;;;;5015301;28;20040;-62
2021/05/21 01:06:31;;;;;;;1.08;0.80;;;22.80;35.70;;;;;;5014824;28;20034;-63
2021/05/21 01:08:58;;;;;;;0.82;0.70;;;22.80;36.30;;;;;;5014690;28;20042;-65
2021/05/21 01:11:24;;;;;;;0.65;0.52;;;22.80;35.70;;;;;;5014243;28;20036;-64
2021/05/21 01:13:50;;;;;;;0.90;0.60;;;22.80;35.70;;;;;;5014390;28;20437;-63
2021/05/21 01:16:16;;;;;;;1.27;0.80;;;22.80;35.70;;;;;;5015136;28;20046;-64
2021/05/21 01:18:42;;;;;;;0.98;0.60;;;22.80;35.80;;;;;;5014647;28;20036;-66
2021/05/21 01:21:08;;;;;;;0.75;0.57;;;22.80;35.80;;;;;;5013923;28;20341;-63
2021/05/21 01:23:34;;;;;;;0.73;0.57;;;22.80;35.80;;;;;;5012857;28;20058;-60
2021/05/21 01:26:00;;;;;;;1.10;0.75;;;22.80;35.80;;;;;;5014826;28;20441;-63
2021/05/21 01:28:25;;;;;;;0.80;0.57;;;22.80;35.80;;;;;;5014775;28;20041;-61
2021/05/21 01:30:52;;;;;;;0.80;0.50;;;22.80;35.80;;;;;;5014392;28;20030;-62
2021/05/21 01:33:18;;;;;;;0.90;0.50;;;22.80;35.80;;;;;;5013826;28;20026;-61
2021/05/21 01:35:45;;;;;;;0.63;0.50;;;22.80;35.90;;;;;;5014140;28;20495;-64
2021/05/21 01:38:14;;;;;;;0.95;0.52;;;22.80;35.90;;;;;;5012726;28;20137;-62
2021/05/21 01:40:42;;;;;;;1.23;0.70;;;22.80;35.90;;;;;;5013253;28;20034;-63
2021/05/21 01:43:08;;;;;;;0.60;0.50;;;22.70;35.90;;;;;;5014545;28;20064;-62
2021/05/21 01:45:34;;;;;;;0.73;0.60;;;22.80;35.90;;;;;;5014152;28;20061;-63
2021/05/21 01:48:00;;;;;;;1.17;0.47;;;22.80;35.90;;;;;;5014037;28;20030;-64
2021/05/21 01:50:26;;;;;;;0.88;0.52;;;22.70;35.90;;;;;;5013579;28;21716;-63
2021/05/21 01:52:52;;;;;;;0.60;0.50;;;22.70;35.90;;;;;;5013229;28;20373;-63
2021/05/21 01:55:19;;;;;;;0.55;0.40;;;22.70;36.00;;;;;;5011277;28;20037;-62
2021/05/21 01:57:44;;;;;;;0.90;0.47;;;22.70;35.90;;;;;;5013703;28;20349;-63
2021/05/21 02:00:12;;;;;;;0.45;0.40;;;22.70;36.00;;;;;;5013194;28;20029;-63
2021/05/21 02:02:42;;;;;;;1.48;0.50;;;22.70;36.00;;;;;;5012270;28;20038;-62
2021/05/21 02:05:09;;;;;;;0.60;0.40;;;22.70;36.10;;;;;;5013831;28;20120;-63
2021/05/21 02:07:36;;;;;;;0.63;0.40;;;22.70;36.10;;;;;;5013494;28;20091;-63
2021/05/21 02:10:09;;;;;;;0.40;0.40;;;22.70;36.20;;;;;;5013520;28;20030;-62
2021/05/21 02:12:37;;;;;;;0.93;0.47;;;22.70;36.20;;;;;;5028838;28;20116;-62
2021/05/21 02:15:08;;;;;;;0.77;0.57;;;22.70;36.20;;;;;;5013868;28;20030;-63
2021/05/21 02:17:34;;;;;;;1.25;0.63;;;22.70;36.20;;;;;;5012358;28;20117;-63
2021/05/21 02:20:02;;;;;;;0.88;0.50;;;22.70;36.30;;;;;;5012583;28;20053;-63
2021/05/21 02:22:28;;;;;;;0.82;0.40;;;22.60;36.20;;;;;;5012444;28;20460;-63
2021/05/21 02:24:56;;;;;;;1.00;0.45;;;22.70;36.40;;;;;;5011792;28;20069;-63
2021/05/21 02:27:23;;;;;;;0.60;0.30;;;22.70;36.50;;;;;;5012757;28;20041;-62
2021/05/21 02:29:49;;;;;;;0.90;0.40;;;22.60;36.50;;;;;;5013222;28;20030;-62
2021/05/21 02:32:15;;;;;;;1.17;0.65;;;22.60;36.60;;;;;;5013258;28;20048;-63
2021/05/21 02:34:42;;;;;;;0.80;0.50;;;22.60;36.70;;;;;;5012526;28;20416;-63
2021/05/21 02:37:08;;;;;;;1.02;0.40;;;22.70;36.90;;;;;;5012560;28;20378;-62
2021/05/21 02:39:34;;;;;;;1.15;0.63;;;22.60;37.50;;;;;;5012755;28;20018;-63
2021/05/21 02:42:00;;;;;;;1.05;0.60;;;22.60;37.00;;;;;;5012148;28;20037;-63
2021/05/21 02:44:26;;;;;;;1.38;0.70;;;22.60;37.10;;;;;;5012487;28;20030;-62
2021/05/21 02:46:52;;;;;;;2.13;0.93;;;22.60;37.10;;;;;;5011676;28;20057;-65
2021/05/21 02:49:21;;;;;;;1.27;0.70;;;22.60;37.20;;;;;;5012999;28;20044;-63
2021/05/21 02:51:52;;;;;;;2.10;0.70;;;22.60;37.20;;;;;;5011787;28;20045;-63
2021/05/21 02:54:19;;;;;;;1.52;0.63;;;22.60;37.30;;;;;;5012707;28;20025;-62
2021/05/21 02:56:45;;;;;;;1.83;0.70;;;22.60;37.30;;;;;;5012629;28;20061;-62
2021/05/21 02:59:10;;;;;;;1.42;0.70;;;22.60;37.40;;;;;;5011157;28;20061;-62
2021/05/21 03:01:37;;;;;;;2.63;1.05;;;22.60;37.50;;;;;;5012933;28;20092;-63
2021/05/21 03:04:03;;;;;;;1.85;0.82;;;22.60;37.50;;;;;;5012685;28;20022;-62
2021/05/21 03:06:29;;;;;;;1.95;0.75;;;22.50;37.50;;;;;;4995113;28;20069;-61
2021/05/21 03:08:55;;;;;;;3.00;1.00;;;22.50;37.50;;;;;;5012274;28;20127;-62
2021/05/21 03:11:21;;;;;;;2.80;1.08;;;22.60;37.60;;;;;;5012040;28;20025;-63
2021/05/21 03:13:47;;;;;;;2.15;0.90;;;22.50;37.50;;;;;;5012390;28;20034;-62
2021/05/21 03:16:13;;;;;;;2.97;0.93;;;22.50;37.60;;;;;;5012909;28;20030;-63
2021/05/21 03:18:39;;;;;;;2.05;0.93;;;22.50;37.60;;;;;;5012234;28;20080;-63
2021/05/21 03:21:06;;;;;;;2.15;0.77;;;22.50;37.60;;;;;;5011915;28;20026;-62
2021/05/21 03:23:31;;;;;;;2.88;1.08;;;22.50;37.70;;;;;;5010617;28;20065;-62
2021/05/21 03:25:58;;;;;;;2.67;0.82;;;22.50;37.70;;;;;;5011552;28;20362;-62
2021/05/21 03:28:24;;;;;;;2.33;1.08;;;22.50;37.70;;;;;;5012194;28;20034;-63
2021/05/21 03:30:50;;;;;;;3.03;1.15;;;22.50;37.70;;;;;;5013035;28;20022;-63
2021/05/21 03:33:16;;;;;;;2.28;0.80;;;22.50;37.70;;;;;;4994827;28;20472;-62
2021/05/21 03:35:42;;;;;;;2.72;1.00;;;22.50;37.80;;;;;;5010987;28;20037;-65
2021/05/21 03:38:09;;;;;;;2.65;0.95;;;22.50;37.80;;;;;;5011283;28;20045;-63
2021/05/21 03:40:36;;;;;;;1.65;0.93;;;22.40;37.80;;;;;;5011782;28;20034;-64
2021/05/21 03:43:03;;;;;;;3.20;1.00;;;22.40;37.80;;;;;;5010705;28;20445;-63
2021/05/21 03:45:29;;;;;;;1.73;0.80;;;22.40;37.80;;;;;;5012198;28;20100;-62
2021/05/21 03:47:55;;;;;;;2.65;1.02;;;22.40;37.90;;;;;;5011306;28;20041;-63
2021/05/21 03:50:22;;;;;;;2.50;1.05;;;22.40;37.90;;;;;;5012171;28;20121;-63
2021/05/21 03:52:48;;;;;;;1.88;0.88;;;22.40;37.90;;;;;;5011580;28;20037;-66
2021/05/21 03:55:16;;;;;;;1.40;0.70;;;22.40;38.00;;;;;;5012594;28;20456;-63
2021/05/21 03:57:42;;;;;;;2.38;0.77;;;22.40;38.00;;;;;;5012492;28;20061;-63
2021/05/21 04:00:11;;;;;;;1.80;0.80;;;22.40;38.00;;;;;;5012493;28;20044;-63
2021/05/21 04:02:37;;;;;;;1.92;0.70;;;22.40;38.00;;;;;;5012344;28;20361;-63
2021/05/21 04:05:04;;;;;;;2.20;0.93;;;22.40;38.00;;;;;;5010839;28;20041;-65
2021/05/21 04:07:30;;;;;;;2.45;0.90;;;22.40;38.00;;;;;;5009635;28;20034;-63
2021/05/21 04:09:56;;;;;;;1.77;0.73;;;22.30;38.00;;;;;;5012564;28;20044;-63
2021/05/21 04:12:22;;;;;;;2.50;0.93;;;22.30;38.00;;;;;;5011849;28;20359;-63
2021/05/21 04:14:48;;;;;;;3.38;1.13;;;22.40;38.00;;;;;;5009782;28;20030;-64
2021/05/21 04:17:13;;;;;;;2.92;1.10;;;22.30;38.00;;;;;;5010267;28;20064;-63
2021/05/21 04:19:39;;;;;;;2.15;0.90;;;22.30;38.00;;;;;;5011549;28;20034;-63
2021/05/21 04:22:06;;;;;;;2.83;0.88;;;22.30;38.00;;;;;;5009837;28;20046;-63
2021/05/21 04:24:31;;;;;;;2.03;0.98;;;22.30;38.00;;;;;;5014789;28;20049;-63
2021/05/21 04:26:57;;;;;;;3.17;1.00;;;22.30;38.00;;;;;;5014491;28;20041;-63
2021/05/21 04:29:23;;;;;;;2.67;1.23;;;22.30;38.00;;;;;;5015366;28;20422;-64
2021/05/21 04:31:49;;;;;;;2.45;1.08;;;22.30;38.00;;;;;;5015902;28;20037;-62
2021/05/21 04:34:15;;;;;;;2.08;0.82;;;22.30;37.90;;;;;;5015337;28;20069;-64
2021/05/21 04:36:40;;;;;;;3.50;1.02;;;22.30;37.90;;;;;;5014548;28;20017;-64
2021/05/21 04:39:06;;;;;;;2.65;0.80;;;22.30;37.90;;;;;;5014622;28;20429;-63
2021/05/21 04:41:32;;;;;;;2.60;1.08;;;22.30;38.00;;;;;;5015021;28;20349;-63
2021/05/21 04:43:58;;;;;;;3.28;1.20;;;22.30;38.00;;;;;;5015337;28;20089;-63
2021/05/21 04:46:24;;;;;;;2.08;0.70;;;22.30;38.00;;;;;;5015246;28;20021;-63
2021/05/21 04:48:49;;;;;;;1.92;0.77;;;22.30;38.00;;;;;;5014471;28;20034;-62
2021/05/21 04:51:15;;;;;;;2.00;0.90;;;22.30;38.00;;;;;;5013675;28;20036;-63
2021/05/21 04:53:41;;;;;;;3.58;1.10;;;22.30;38.00;;;;;;5015300;28;20014;-63
2021/05/21 04:56:08;;;;;;;2.75;1.00;;;22.30;38.10;;;;;;5014926;28;20018;-63
2021/05/21 04:58:35;;;;;;;1.77;0.93;;;22.30;38.10;;;;;;5014948;28;20109;-63
2021/05/21 05:01:02;;;;;;;2.00;0.70;;;22.30;38.10;;;;;;5015070;28;20344;-63
2021/05/21 05:03:29;;;;;;;1.98;0.80;;;22.30;38.10;;;;;;5014193;28;20088;-63
2021/05/21 05:05:55;;;;;;;2.08;0.82;;;22.30;38.20;;;;;;5014599;28;20065;-64
2021/05/21 05:08:21;;;;;;;2.85;1.13;;;22.30;38.20;;;;;;5014739;28;20041;-65
2021/05/21 05:10:49;;;;;;;1.88;0.77;;;22.30;38.20;;;;;;5014207;28;20037;-62
2021/05/21 05:13:17;;;;;;;2.22;1.15;;;22.30;38.20;;;;;;5013654;28;20044;-64
2021/05/21 05:15:44;;;;;;;1.65;0.73;;;22.30;38.30;;;;;;5013497;28;20079;-63
2021/05/21 05:18:11;;;;;;;1.88;0.82;;;22.30;38.20;;;;;;5014594;28;20044;-62
2021/05/21 05:20:37;;;;;;;3.30;0.73;;;22.30;38.20;;;;;;5012588;28;20386;-62
2021/05/21 05:23:06;;;;;;;1.65;0.70;;;22.30;38.20;;;;;;5013566;28;20061;-62
2021/05/21 05:25:32;;;;;;;2.20;0.80;;;22.30;38.20;;;;;;5014007;28;20046;-63
2021/05/21 05:27:58;;;;;;;2.78;0.93;;;22.30;38.10;;;;;;5013646;28;20445;-63
2021/05/21 05:30:24;;;;;;;2.58;0.75;;;22.30;38.20;;;;;;4992492;28;20053;-62
2021/05/21 05:32:51;;;;;;;2.40;1.00;;;22.30;38.20;;;;;;4974047;28;20047;-62
2021/05/21 05:35:17;;;;;;;1.05;0.60;;;22.30;38.20;;;;;;4991734;28;20173;-64
2021/05/21 05:37:43;;;;;;;1.48;0.85;;;22.30;38.20;;;;;;4992175;28;20042;-62
2021/05/21 05:40:09;;;;;;;1.50;0.85;;;22.30;38.20;;;;;;4986539;28;20137;-63
2021/05/21 05:42:35;;;;;;;1.20;0.57;;;22.30;38.20;;;;;;4975760;28;20038;-62
2021/05/21 05:45:01;;;;;;;1.73;0.65;;;22.30;38.20;;;;;;4991749;28;20054;-62
2021/05/21 05:47:27;;;;;;;2.50;0.95;;;22.30;38.20;;;;;;4991184;28;20525;-62
2021/05/21 05:49:53;;;;;;;3.63;1.45;;;22.30;38.10;;;;;;4973404;28;20229;-63
2021/05/21 05:52:19;;;;;;;1.73;0.70;;;22.30;38.10;;;;;;4990958;28;20377;-63
2021/05/21 05:54:45;;;;;;;1.63;0.60;;;22.30;38.00;;;;;;4992540;28;20026;-63
2021/05/21 05:57:10;;;;;;;1.52;0.70;;;22.30;38.00;;;;;;4975431;28;20458;-63
2021/05/21 05:59:38;;;;;;;2.83;1.00;;;22.30;37.90;;;;;;4992435;28;20049;-63
2021/05/21 06:02:04;;;;;;;2.17;0.85;;;22.30;37.90;;;;;;5008436;28;20113;-63
2021/05/21 06:04:30;;;;;;;2.17;1.00;;;22.30;37.80;;;;;;5014065;28;20410;-62
2021/05/21 06:06:55;;;;;;;3.45;1.20;;;22.30;37.80;;;;;;5013124;28;20029;-63
2021/05/21 06:09:21;;;;;;;2.30;0.82;;;22.30;37.70;;;;;;5012942;28;20066;-64
2021/05/21 06:11:47;;;;;;;2.78;1.10;;;22.30;37.70;;;;;;5014164;28;20330;-63
2021/05/21 06:14:13;;;;;;;2.00;0.70;;;22.30;37.60;;;;;;5013870;28;20135;-64
2021/05/21 06:16:40;;;;;;;1.92;0.80;;;22.30;37.60;;;;;;5012707;28;20022;-65
2021/05/21 06:19:06;;;;;;;2.85;0.80;;;22.30;37.50;;;;;;5014039;28;20441;-64
2021/05/21 06:21:32;;;;;;;3.47;1.13;;;22.30;37.40;;;;;;5013365;28;20040;-64
2021/05/21 06:23:58;;;;;;;1.60;0.68;;;22.30;37.30;;;;;;5013406;28;20140;-65
2021/05/21 06:28:53;;;;;;;1.83;0.88;;;22.30;37.10;;;;;;5013802;28;20111;-64
2021/05/21 06:31:20;;;;;;;2.13;0.82;;;22.30;36.90;;;;;;5013316;28;20080;-64
2021/05/21 06:33:47;;;;;;;2.38;1.13;;;22.30;36.80;;;;;;5012609;28;20113;-64
2021/05/21 06:36:12;;;;;;;2.88;1.15;;;22.30;36.70;;;;;;5011615;28;20464;-65
2021/05/21 06:38:39;;;;;;;2.53;1.10;;;22.30;36.60;;;;;;5013169;28;20034;-64
2021/05/21 06:41:06;;;;;;;1.90;0.88;;;22.40;36.60;;;;;;5012259;28;20500;-66
2021/05/21 06:43:32;;;;;;;3.08;0.90;;;22.30;36.50;;;;;;5011681;28;20026;-63
2021/05/21 06:45:59;;;;;;;2.28;0.85;;;22.30;36.50;;;;;;5013585;28;20109;-64
2021/05/21 06:48:35;;;;;;;1.60;0.93;;;22.30;36.50;;;;;;5013439;28;20026;-61
2021/05/21 06:51:04;;;;;;;1.60;0.60;;;22.40;36.60;;;;;;5011027;28;20045;-63
2021/05/21 06:53:30;;;;;;;2.25;0.90;;;22.40;36.50;;;;;;5012067;28;20037;-65
2021/05/21 06:55:56;;;;;;;2.00;0.80;;;22.50;36.40;;;;;;5010713;28;20038;-63
2021/05/21 06:58:24;;;;;;;2.30;1.00;;;22.50;36.20;;;;;;5008304;28;20101;-63
2021/05/21 07:00:51;;;;;;;1.95;0.73;;;22.60;36.10;;;;;;5012374;28;20038;-64
2021/05/21 07:03:17;;;;;;;2.55;0.93;;;22.60;35.90;;;;;;5013211;28;20045;-63
2021/05/21 07:05:43;;;;;;;2.05;0.90;;;22.60;35.80;;;;;;5013053;28;20026;-63
2021/05/21 07:08:13;;;;;;;1.48;0.80;;;22.60;35.60;;;;;;5012366;28;20049;-66
2021/05/21 07:10:39;;;;;;;2.50;0.90;;;22.70;35.50;;;;;;5010725;28;20026;-65
2021/05/21 07:13:10;;;;;;;1.85;0.90;;;22.70;35.40;;;;;;5010962;28;20436;-64
2021/05/21 07:15:36;;;;;;;1.95;0.95;;;22.70;35.30;;;;;;5013042;28;20069;-63
2021/05/21 07:18:03;;;;;;;1.80;0.85;;;22.70;35.20;;;;;;5011598;28;20479;-64
2021/05/21 07:20:29;;;;;;;2.85;0.63;;;22.80;35.10;;;;;;5013345;28;20103;-64
2021/05/21 07:22:54;;;;;;;2.20;1.00;;;22.80;35.00;;;;;;5014000;28;20129;-63
2021/05/21 07:25:27;;;;;;;1.92;0.80;;;22.80;34.90;;;;;;5012969;28;20095;-64
2021/05/21 07:27:53;;;;;;;2.30;0.90;;;22.80;34.90;;;;;;5013258;28;20050;-64
2021/05/21 07:30:20;;;;;;;4.22;1.20;;;22.80;34.80;;;;;;5012517;28;20022;-65
2021/05/21 07:32:46;;;;;;;3.67;1.20;;;22.90;34.80;;;;;;5013817;28;20065;-65
2021/05/21 07:35:12;;;;;;;2.40;0.90;;;22.90;34.70;;;;;;5012921;28;20113;-64
2021/05/21 07:37:38;;;;;;;2.28;1.00;;;22.90;34.60;;;;;;5011587;28;20037;-66
2021/05/21 07:40:06;;;;;;;2.72;1.00;;;22.90;34.60;;;;;;5010440;28;20040;-62
2021/05/21 07:42:34;;;;;;;2.75;1.10;;;22.90;34.50;;;;;;4985516;28;20041;-63
2021/05/21 07:45:00;;;;;;;2.83;1.08;;;22.90;34.40;;;;;;5011720;28;20069;-63
2021/05/21 07:47:26;;;;;;;1.38;0.77;;;22.90;34.40;;;;;;5011933;28;20080;-64
2021/05/21 07:49:52;;;;;;;3.50;1.17;;;22.90;34.30;;;;;;5012431;28;20025;-65
2021/05/21 07:52:18;;;;;;;3.05;1.13;;;23.00;34.30;;;;;;5012526;28;20113;-63
2021/05/21 07:54:44;;;;;;;2.28;0.90;;;22.90;34.20;;;;;;5024188;28;20433;-66
2021/05/21 07:57:11;;;;;;;3.35;1.00;;;23.00;34.20;;;;;;5010078;28;20326;-62
2021/05/21 07:59:38;;;;;;;4.93;1.42;;;23.00;34.10;;;;;;5014422;28;20062;-64
2021/05/21 08:02:04;;;;;;;2.50;0.98;;;23.00;34.20;;;;;;5012885;28;20025;-65
2021/05/21 08:04:30;;;;;;;2.03;0.80;;;23.00;34.20;;;;;;5013608;28;20029;-63
2021/05/21 08:07:02;;;;;;;3.80;1.35;;;23.00;34.20;;;;;;5011229;28;20026;-64
2021/05/21 08:09:28;;;;;;;2.20;0.88;;;23.00;34.30;;;;;;5015180;28;20048;-64
2021/05/21 08:11:54;;;;;;;2.95;1.27;;;23.00;34.30;;;;;;5019536;28;20022;-64
2021/05/21 08:14:19;;;;;;;3.03;0.90;;;23.00;34.40;;;;;;5015121;28;20037;-65
2021/05/21 08:16:45;;;;;;;1.85;0.88;;;23.00;34.50;;;;;;5013302;28;20038;-63
2021/05/21 08:19:11;;;;;;;1.85;0.70;;;23.10;34.60;;;;;;5014975;28;20117;-64
2021/05/21 08:21:37;;;;;;;1.95;0.70;;;23.10;34.70;;;;;;5014762;28;20108;-64
2021/05/21 08:24:03;;;;;;;1.75;0.80;;;23.10;34.70;;;;;;5014902;28;20534;-63
2021/05/21 08:26:29;;;;;;;1.38;0.60;;;23.10;34.70;;;;;;5013562;28;20026;-64
2021/05/21 08:28:57;;;;;;;1.15;0.50;;;23.10;34.70;;;;;;5014272;28;20030;-63
2021/05/21 08:31:23;;;;;;;1.55;0.65;;;23.10;34.70;;;;;;5015106;28;20144;-64
2021/05/21 08:33:49;;;;;;;1.42;0.57;;;23.10;34.70;;;;;;5016053;28;20037;-61
2021/05/21 08:36:15;;;;;;;1.77;0.70;;;23.10;34.70;;;;;;5015290;28;20021;-65
2021/05/21 08:38:44;;;;;;;1.88;0.60;;;23.10;34.70;;;;;;5014866;28;20041;-63
2021/05/21 08:41:30;;;;;;;1.83;0.55;;;23.10;34.80;;;;;;5013749;28;20235;-64
2021/05/21 08:43:57;;;;;;;1.67;0.73;;;23.10;34.80;;;;;;5014161;28;20034;-64
2021/05/21 08:46:28;;;;;;;1.10;0.50;;;23.10;34.80;;;;;;4997030;28;20065;-62
2021/05/21 08:48:58;;;;;;;1.65;0.70;;;23.10;34.90;;;;;;5014809;28;20454;-64
2021/05/21 08:51:24;;;;;;;2.22;0.75;;;23.10;34.90;;;;;;5015100;28;20026;-63
2021/05/21 08:53:50;;;;;;;1.67;0.75;;;23.10;35.00;;;;;;5010834;28;20113;-65
2021/05/21 08:56:16;;;;;;;1.85;0.80;;;23.10;35.00;;;;;;5015658;28;20176;-58
2021/05/21 08:58:43;;;;;;;1.95;0.77;;;23.10;35.00;;;;;;5015109;28;20036;-60
2021/05/21 09:01:10;;;;;;;2.03;0.80;;;23.10;35.00;;;;;;5013959;28;20121;-52
2021/05/21 09:03:36;;;;;;;0.82;0.50;;;23.10;35.10;;;;;;5014760;28;20038;-59
2021/05/21 09:08:58;;;;;;;2.20;1.02;;;23.20;35.30;;;;;;5013417;28;20068;-51
2021/05/21 09:11:36;;;;;;;2.90;1.10;;;23.20;35.20;;;;;;5014697;28;20030;-58
2021/05/21 09:14:18;;;;;;;1.70;0.90;;;23.30;35.20;;;;;;5014407;28;20034;-62
2021/05/21 09:16:45;;;;;;;1.25;0.80;;;23.30;35.20;;;;;;5013579;28;20026;-62
2021/05/21 09:19:15;;;;;;;2.13;0.85;;;23.30;35.10;;;;;;5013882;28;20079;-59
2021/05/21 09:22:06;;;;;;;1.88;0.88;;;23.30;35.10;;;;;;5014945;28;20095;-58
2021/05/21 09:24:42;;;;;;;2.78;1.20;;;23.30;35.00;;;;;;5013815;28;20491;-60
2021/05/21 09:27:10;;;;;;;1.75;0.93;;;23.30;35.00;;;;;;5011996;28;20034;-61
2021/05/21 09:29:44;;;;;;;3.13;1.00;;;23.30;35.00;;;;;;5013774;28;20397;-61
2021/05/21 09:32:33;;;;;;;2.00;0.80;;;23.30;35.10;;;;;;5014157;28;20034;-60
2021/05/21 09:35:06;;;;;;;1.40;0.60;;;23.30;35.20;;;;;;5012518;28;20034;-60
2021/05/21 09:37:35;;;;;;;2.87;0.70;;;23.40;35.40;;;;;;5014149;28;20097;-60
2021/05/21 09:40:11;;;;;;;2.75;0.82;;;23.40;35.50;;;;;;5011262;28;20033;-61
2021/05/21 09:42:44;;;;;;;1.30;0.60;;;23.40;35.70;;;;;;5013004;28;20112;-59
2021/05/21 09:45:21;;;;;;;1.10;0.45;;;23.40;35.80;;;;;;5009472;28;20033;-58
2021/05/21 09:47:59;;;;;;;1.95;0.80;;;23.40;35.80;;;;;;5007992;28;20037;-60
2021/05/21 09:50:32;;;;;;;2.92;0.57;;;23.50;36.00;;;;;;5014343;28;20026;-60
2021/05/21 09:53:09;;;;;;;1.70;0.65;;;23.50;36.10;;;;;;5015447;28;20030;-60
2021/05/21 09:55:39;;;;;;;1.70;0.77;;;23.50;36.10;;;;;;5014626;28;20065;-57
2021/05/21 09:58:07;;;;;;;1.63;0.63;;;23.50;36.10;;;;;;5002937;28;20061;-60
2021/05/21 10:00:34;;;;;;;1.60;0.85;;;23.60;36.20;;;;;;5015685;28;20359;-57
2021/05/21 10:03:01;;;;;;;1.50;0.60;;;23.60;36.20;;;;;;5014866;28;20401;-59
2021/05/21 10:05:28;;;;;;;2.67;0.70;;;23.60;36.20;;;;;;5013997;28;20088;-58
2021/05/21 10:07:54;;;;;;;2.35;0.73;;;23.60;36.20;;;;;;5013546;28;20033;-58
2021/05/21 10:10:24;;;;;;;1.88;0.70;;;23.60;36.20;;;;;;5014678;28;20065;-60
2021/05/21 10:12:50;;;;;;;1.48;0.70;;;23.70;36.20;;;;;;5014635;28;20037;-60
2021/05/21 10:15:16;;;;;;;1.67;0.70;;;23.70;36.10;;;;;;5014600;28;20101;-60
2021/05/21 10:17:44;;;;;;;1.90;0.77;;;23.70;36.10;;;;;;5014655;28;20092;-58
2021/05/21 10:20:12;;;;;;;2.00;0.93;;;23.70;36.10;;;;;;5013716;28;20109;-58
2021/05/21 10:22:40;;;;;;;2.15;0.80;;;23.70;36.00;;;;;;5014103;28;20184;-54
2021/05/21 10:25:26;;;;;;;2.05;0.93;;;23.70;36.00;;;;;;5014198;28;20042;-60
2021/05/21 10:27:54;;;;;;;2.15;0.90;;;23.70;36.00;;;;;;5014351;28;20096;-59
2021/05/21 10:30:25;;;;;;;2.80;1.00;;;23.80;36.00;;;;;;5003891;28;20117;-60
2021/05/21 10:33:16;;;;;;;3.30;1.00;;;23.80;35.90;;;;;;5000643;28;20377;-60
2021/05/21 10:36:15;;;;;;;2.75;1.00;;;23.80;35.80;;;;;;5013679;28;20072;-61
2021/05/21 10:39:10;;;;;;;2.33;0.90;;;23.80;35.70;;;;;;5012374;28;20049;-58
2021/05/21 10:41:57;;;;;;;3.33;0.80;;;23.70;35.70;;;;;;5013198;28;20177;-57
2021/05/21 10:44:28;;;;;;;2.08;0.80;;;23.70;35.70;;;;;;5025542;28;20072;-59
2021/05/21 10:47:16;;;;;;;3.20;0.90;;;23.80;35.70;;;;;;5009839;28;20137;-59
2021/05/21 10:50:03;;;;;;;1.35;0.70;;;23.80;35.60;;;;;;5012833;28;20381;-58
2021/05/21 10:52:48;;;;;;;2.05;0.75;;;23.80;35.70;;;;;;4998375;28;20057;-62
2021/05/21 10:55:15;;;;;;;2.42;1.25;;;23.80;35.70;;;;;;5013194;28;20079;-60
2021/05/21 10:57:42;;;;;;;2.63;0.82;;;23.90;35.80;;;;;;5012537;28;20089;-59
2021/05/21 11:00:08;;;;;;;2.65;1.15;;;23.90;35.70;;;;;;5013938;28;20505;-58
2021/05/21 11:02:43;;;;;;;2.58;1.08;;;23.90;35.70;;;;;;5014046;28;20044;-60
2021/05/21 11:05:23;;;;;;;2.13;0.85;;;23.90;35.70;;;;;;5012335;28;20030;-61
2021/05/21 11:07:55;;;;;;;2.03;0.60;;;24.00;35.80;;;;;;5013787;28;20049;-58
2021/05/21 11:10:47;;;;;;;2.90;0.77;;;24.00;35.80;;;;;;5011112;28;20460;-57
2021/05/21 11:13:15;;;;;;;1.77;0.73;;;24.00;35.80;;;;;;5009920;28;20042;-57
2021/05/21 11:15:45;;;;;;;1.83;0.70;;;24.00;35.90;;;;;;5009592;28;20026;-57
2021/05/21 11:18:17;;;;;;;1.83;0.75;;;24.10;35.90;;;;;;5009311;28;20109;-58
2021/05/21 11:21:12;;;;;;;1.88;0.50;;;24.10;35.90;;;;;;5010772;28;20445;-57
2021/05/21 11:23:39;;;;;;;1.75;0.88;;;24.20;35.90;;;;;;5006862;28;20074;-58
2021/05/21 11:26:15;;;;;;;1.35;0.82;;;24.20;35.90;;;;;;5011098;28;20064;-54
2021/05/21 11:28:41;;;;;;;1.95;0.80;;;24.30;35.90;;;;;;5010278;28;20029;-55
2021/05/21 11:31:22;;;;;;;1.92;0.77;;;24.30;35.90;;;;;;5008714;28;20041;-59
2021/05/21 11:33:51;;;;;;;1.38;0.60;;;24.30;35.90;;;;;;5010215;28;20073;-51
2021/05/21 11:36:18;;;;;;;2.40;0.90;;;24.40;36.00;;;;;;5008833;28;20434;-60
2021/05/21 11:38:44;;;;;;;1.95;0.80;;;24.40;36.00;;;;;;5010538;28;20041;-58
2021/05/21 11:41:14;;;;;;;1.65;0.60;;;24.40;36.00;;;;;;5011613;28;20092;-57
2021/05/21 11:43:44;;;;;;;1.98;1.02;;;24.50;36.00;;;;;;5011794;28;20458;-56
2021/05/21 11:46:18;;;;;;;1.58;0.70;;;24.50;36.10;;;;;;5011447;28;20036;-56
2021/05/21 11:48:45;;;;;;;2.85;1.00;;;24.60;36.20;;;;;;5009588;28;20484;-58
2021/05/21 11:51:25;;;;;;;1.40;0.55;;;24.60;36.20;;;;;;5011742;28;20042;-56
2021/05/21 11:54:07;;;;;;;1.13;0.75;;;24.60;36.30;;;;;;5009285;28;20037;-51
2021/05/21 11:56:33;;;;;;;1.88;0.85;;;24.60;36.30;;;;;;5008000;28;20038;-58
2021/05/21 11:59:00;;;;;;;1.83;0.70;;;24.60;36.40;;;;;;5010474;28;20022;-62
2021/05/21 12:01:29;;;;;;;2.70;0.70;;;24.70;36.50;;;;;;5009892;28;20037;-59
2021/05/21 12:03:55;;;;;;;2.63;0.73;;;24.60;36.50;;;;;;5009552;28;20041;-62
2021/05/21 12:06:20;;;;;;;1.45;0.70;;;24.70;36.50;;;;;;5010432;28;20040;-56
2021/05/21 12:08:51;;;;;;;1.70;0.75;;;24.70;36.50;;;;;;5009929;28;20061;-59
2021/05/21 12:11:17;;;;;;;2.60;0.98;;;24.70;36.40;;;;;;5010152;28;20022;-58
2021/05/21 12:13:43;;;;;;;1.85;0.60;;;24.70;36.40;;;;;;5010092;28;20018;-53
2021/05/21 12:16:18;;;;;;;1.23;0.60;;;24.70;36.30;;;;;;5011557;28;20030;-56
2021/05/21 12:18:44;;;;;;;;;;;24.70;36.20;;;;;;5011015;28;20038;-57
2021/05/21 12:21:11;;;;;;;1.35;0.57;;;24.60;36.20;;;;;;5012549;28;19949;-58
2021/05/21 12:23:39;;;;;;;1.98;0.80;;;24.60;36.20;;;;;;5010934;28;20061;-58
2021/05/21 12:26:11;;;;;;;2.80;0.70;;;24.60;36.10;;;;;;5009427;28;20064;-57
2021/05/21 12:28:37;;;;;;;1.35;0.63;;;24.60;36.00;;;;;;5012722;28;20065;-60
2021/05/21 12:31:05;;;;;;;2.00;0.98;;;24.60;36.00;;;;;;5011839;28;20441;-57
2021/05/21 12:33:35;;;;;;;1.65;0.98;;;24.50;35.90;;;;;;5011502;28;20037;-59
2021/05/21 12:36:04;;;;;;;2.35;0.93;;;24.50;35.80;;;;;;5011647;28;20037;-57
2021/05/21 12:38:31;;;;;;;1.08;0.65;;;24.50;35.70;;;;;;5010733;28;20469;-58
2021/05/21 12:40:58;;;;;;;1.60;0.70;;;24.50;35.70;;;;;;5011148;28;20345;-57
2021/05/21 12:43:31;;;;;;;3.08;1.00;;;24.50;35.60;;;;;;5012757;28;20121;-58
2021/05/21 12:46:04;;;;;;;1.90;0.70;;;24.50;35.60;;;;;;5014632;28;20044;-56
2021/05/21 12:48:43;;;;;;;1.55;0.70;;;24.50;35.60;;;;;;5014967;28;20045;-57
2021/05/21 12:51:25;;;;;;;2.40;0.73;;;24.50;35.60;;;;;;5015214;28;20022;-61
2021/05/21 12:53:51;;;;;;;1.27;0.60;;;24.50;35.80;;;;;;5013826;28;20098;-56
2021/05/21 12:56:33;;;;;;;1.80;0.90;;;24.50;35.90;;;;;;5015446;28;20033;-57
2021/05/21 12:59:04;;;;;;;1.27;0.60;;;24.50;35.90;;;;;;5011937;28;20036;-59